sensor_id;sensor_type;location;lat;lon;timestamp;P1;durP1;ratioP1;P2;durP2;ratioP2
7475;SDS011;3779;49.216;8.650;2022-09-03T00:05:22;1.40;;;1.30;;
7475;SDS011;3779;49.216;8.650;2022-09-03T00:08:15;3.47;;;1.35;;
7475;SDS011;3779;49.216;8.650;2022-09-03T00:11:11;2.17;;;1.20;;
7475;SDS011;3779;49.216;8.650;2022-09-03T00:14:12;2.80;;;1.30;;
7475;SDS011;3779;49.216;8.650;2022-09-03T00:17:13;1.85;;;1.33;;
7475;SDS011;3779;49.216;8.650;2022-09-03T00:20:14;1.30;;;1.20;;
7475;SDS011;3779;49.216;8.650;2022-09-03T00:23:03;1.40;;;1.25;;
7475;SDS011;3779;49.216;8.650;2022-09-03T00:26:13;3.10;;;1.30;;
7475;SDS011;3779;49.216;8.650;2022-09-03T00:29:11;3.13;;;1.40;;
7475;SDS011;3779;49.216;8.650;2022-09-03T00:32:19;2.28;;;1.30;;
7475;SDS011;3779;49.216;8.650;2022-09-03T00:35:19;1.40;;;1.20;;
7475;SDS011;3779;49.216;8.650;2022-09-03T00:38:10;1.85;;;1.27;;
7475;SDS011;3779;49.216;8.650;2022-09-03T00:46:53;2.60;;;1.63;;
7475;SDS011;3779;49.216;8.650;2022-09-03T00:55:59;3.72;;;1.33;;
7475;SDS011;3779;49.216;8.650;2022-09-03T01:08:19;1.50;;;1.23;;
7475;SDS011;3779;49.216;8.650;2022-09-03T01:14:13;1.30;;;1.20;;
7475;SDS011;3779;49.216;8.650;2022-09-03T01:17:28;1.40;;;1.30;;
7475;SDS011;3779;49.216;8.650;2022-09-03T01:20:34;1.25;;;1.15;;
7475;SDS011;3779;49.216;8.650;2022-09-03T01:30:06;1.77;;;1.30;;
7475;SDS011;3779;49.216;8.650;2022-09-03T01:33:04;1.83;;;1.23;;
7475;SDS011;3779;49.216;8.650;2022-09-03T01:36:07;5.35;;;1.52;;
7475;SDS011;3779;49.216;8.650;2022-09-03T01:38:59;1.55;;;1.20;;
7475;SDS011;3779;49.216;8.650;2022-09-03T01:41:53;1.67;;;1.45;;
7475;SDS011;3779;49.216;8.650;2022-09-03T01:45:10;2.80;;;1.40;;
7475;SDS011;3779;49.216;8.650;2022-09-03T01:48:14;1.95;;;1.30;;
7475;SDS011;3779;49.216;8.650;2022-09-03T01:51:15;1.63;;;1.35;;
7475;SDS011;3779;49.216;8.650;2022-09-03T02:00:19;3.47;;;1.33;;
7475;SDS011;3779;49.216;8.650;2022-09-03T02:03:06;1.95;;;1.20;;
7475;SDS011;3779;49.216;8.650;2022-09-03T02:05:54;1.60;;;1.25;;
7475;SDS011;3779;49.216;8.650;2022-09-03T02:08:39;1.98;;;1.10;;
7475;SDS011;3779;49.216;8.650;2022-09-03T02:11:26;1.70;;;1.35;;
7475;SDS011;3779;49.216;8.650;2022-09-03T02:14:13;1.33;;;1.23;;
7475;SDS011;3779;49.216;8.650;2022-09-03T02:16:59;1.20;;;1.10;;
7475;SDS011;3779;49.216;8.650;2022-09-03T02:19:46;2.10;;;1.30;;
7475;SDS011;3779;49.216;8.650;2022-09-03T02:22:32;1.55;;;1.20;;
7475;SDS011;3779;49.216;8.650;2022-09-03T02:25:19;1.30;;;1.13;;
7475;SDS011;3779;49.216;8.650;2022-09-03T02:28:08;2.95;;;1.10;;
7475;SDS011;3779;49.216;8.650;2022-09-03T02:30:54;1.85;;;1.00;;
7475;SDS011;3779;49.216;8.650;2022-09-03T02:33:41;1.45;;;1.10;;
7475;SDS011;3779;49.216;8.650;2022-09-03T02:36:34;1.65;;;1.55;;
7475;SDS011;3779;49.216;8.650;2022-09-03T02:39:30;1.95;;;1.10;;
7475;SDS011;3779;49.216;8.650;2022-09-03T02:42:15;1.33;;;1.20;;
7475;SDS011;3779;49.216;8.650;2022-09-03T02:45:06;1.92;;;1.20;;
7475;SDS011;3779;49.216;8.650;2022-09-03T02:48:04;3.92;;;1.20;;
7475;SDS011;3779;49.216;8.650;2022-09-03T02:50:52;2.08;;;1.30;;
7475;SDS011;3779;49.216;8.650;2022-09-03T02:53:38;4.22;;;1.40;;
7475;SDS011;3779;49.216;8.650;2022-09-03T02:56:24;2.35;;;1.20;;
7475;SDS011;3779;49.216;8.650;2022-09-03T02:59:12;2.95;;;1.20;;
7475;SDS011;3779;49.216;8.650;2022-09-03T03:01:57;1.95;;;1.33;;
7475;SDS011;3779;49.216;8.650;2022-09-03T03:04:43;1.77;;;1.30;;
7475;SDS011;3779;49.216;8.650;2022-09-03T03:07:29;1.77;;;1.10;;
7475;SDS011;3779;49.216;8.650;2022-09-03T03:10:18;1.52;;;1.27;;
7475;SDS011;3779;49.216;8.650;2022-09-03T03:13:04;1.17;;;1.08;;
7475;SDS011;3779;49.216;8.650;2022-09-03T03:15:53;1.73;;;1.30;;
7475;SDS011;3779;49.216;8.650;2022-09-03T03:18:41;2.55;;;1.20;;
7475;SDS011;3779;49.216;8.650;2022-09-03T03:21:27;1.42;;;1.30;;
7475;SDS011;3779;49.216;8.650;2022-09-03T03:24:13;2.25;;;1.20;;
7475;SDS011;3779;49.216;8.650;2022-09-03T03:26:59;1.33;;;1.10;;
7475;SDS011;3779;49.216;8.650;2022-09-03T03:29:44;2.08;;;1.13;;
7475;SDS011;3779;49.216;8.650;2022-09-03T03:32:30;1.73;;;1.25;;
7475;SDS011;3779;49.216;8.650;2022-09-03T03:35:16;2.17;;;1.50;;
7475;SDS011;3779;49.216;8.650;2022-09-03T03:38:02;1.25;;;1.15;;
7475;SDS011;3779;49.216;8.650;2022-09-03T03:40:49;3.17;;;1.10;;
7475;SDS011;3779;49.216;8.650;2022-09-03T03:43:35;1.52;;;1.13;;
7475;SDS011;3779;49.216;8.650;2022-09-03T03:46:21;1.20;;;1.10;;
7475;SDS011;3779;49.216;8.650;2022-09-03T03:49:08;1.30;;;1.20;;
7475;SDS011;3779;49.216;8.650;2022-09-03T03:51:55;1.33;;;1.20;;
7475;SDS011;3779;49.216;8.650;2022-09-03T03:54:40;2.22;;;1.23;;
7475;SDS011;3779;49.216;8.650;2022-09-03T03:57:28;1.40;;;1.20;;
7475;SDS011;3779;49.216;8.650;2022-09-03T04:00:15;1.30;;;1.20;;
7475;SDS011;3779;49.216;8.650;2022-09-03T04:03:01;1.48;;;1.20;;
7475;SDS011;3779;49.216;8.650;2022-09-03T04:05:56;2.50;;;1.40;;
7475;SDS011;3779;49.216;8.650;2022-09-03T04:08:44;1.30;;;1.20;;
7475;SDS011;3779;49.216;8.650;2022-09-03T04:11:31;2.35;;;1.40;;
7475;SDS011;3779;49.216;8.650;2022-09-03T04:14:17;2.25;;;1.42;;
7475;SDS011;3779;49.216;8.650;2022-09-03T04:17:03;1.73;;;1.25;;
7475;SDS011;3779;49.216;8.650;2022-09-03T04:19:49;1.30;;;1.20;;
7475;SDS011;3779;49.216;8.650;2022-09-03T04:22:34;1.30;;;1.20;;
7475;SDS011;3779;49.216;8.650;2022-09-03T04:25:20;1.98;;;1.40;;
7475;SDS011;3779;49.216;8.650;2022-09-03T04:28:06;2.28;;;1.27;;
7475;SDS011;3779;49.216;8.650;2022-09-03T04:30:52;1.23;;;1.13;;
7475;SDS011;3779;49.216;8.650;2022-09-03T04:33:38;1.13;;;1.02;;
7475;SDS011;3779;49.216;8.650;2022-09-03T04:36:25;1.42;;;1.20;;
7475;SDS011;3779;49.216;8.650;2022-09-03T04:39:13;1.75;;;1.42;;
7475;SDS011;3779;49.216;8.650;2022-09-03T04:41:59;3.33;;;1.20;;
7475;SDS011;3779;49.216;8.650;2022-09-03T04:44:44;1.30;;;1.20;;
7475;SDS011;3779;49.216;8.650;2022-09-03T04:47:30;1.40;;;1.30;;
7475;SDS011;3779;49.216;8.650;2022-09-03T04:50:16;2.42;;;1.40;;
7475;SDS011;3779;49.216;8.650;2022-09-03T04:53:02;6.55;;;1.50;;
7475;SDS011;3779;49.216;8.650;2022-09-03T04:55:49;1.60;;;1.30;;
7475;SDS011;3779;49.216;8.650;2022-09-03T04:58:35;2.70;;;1.38;;
7475;SDS011;3779;49.216;8.650;2022-09-03T05:01:22;4.00;;;1.40;;
7475;SDS011;3779;49.216;8.650;2022-09-03T05:04:11;1.42;;;1.20;;
7475;SDS011;3779;49.216;8.650;2022-09-03T05:06:56;1.67;;;1.23;;
7475;SDS011;3779;49.216;8.650;2022-09-03T05:09:42;3.17;;;1.58;;
7475;SDS011;3779;49.216;8.650;2022-09-03T05:12:28;1.30;;;1.20;;
7475;SDS011;3779;49.216;8.650;2022-09-03T05:15:15;2.70;;;1.45;;
7475;SDS011;3779;49.216;8.650;2022-09-03T05:18:01;2.95;;;1.33;;
7475;SDS011;3779;49.216;8.650;2022-09-03T05:20:47;1.80;;;1.40;;
7475;SDS011;3779;49.216;8.650;2022-09-03T05:23:44;1.73;;;1.10;;
7475;SDS011;3779;49.216;8.650;2022-09-03T05:26:34;3.03;;;1.30;;
7475;SDS011;3779;49.216;8.650;2022-09-03T05:29:22;2.35;;;1.50;;
7475;SDS011;3779;49.216;8.650;2022-09-03T05:32:08;1.90;;;1.20;;
7475;SDS011;3779;49.216;8.650;2022-09-03T05:34:54;2.67;;;1.15;;
7475;SDS011;3779;49.216;8.650;2022-09-03T05:37:40;2.95;;;1.40;;
7475;SDS011;3779;49.216;8.650;2022-09-03T05:40:26;1.40;;;1.30;;
7475;SDS011;3779;49.216;8.650;2022-09-03T05:43:11;3.28;;;1.30;;
7475;SDS011;3779;49.216;8.650;2022-09-03T05:45:58;1.27;;;1.17;;
7475;SDS011;3779;49.216;8.650;2022-09-03T05:48:49;2.58;;;1.20;;
7475;SDS011;3779;49.216;8.650;2022-09-03T05:51:35;1.63;;;1.15;;
7475;SDS011;3779;49.216;8.650;2022-09-03T05:54:23;1.45;;;1.20;;
7475;SDS011;3779;49.216;8.650;2022-09-03T05:57:09;1.48;;;1.30;;
7475;SDS011;3779;49.216;8.650;2022-09-03T05:59:55;1.40;;;1.30;;
7475;SDS011;3779;49.216;8.650;2022-09-03T06:02:41;2.53;;;1.42;;
7475;SDS011;3779;49.216;8.650;2022-09-03T06:05:27;3.40;;;1.50;;
7475;SDS011;3779;49.216;8.650;2022-09-03T06:08:13;1.63;;;1.52;;
7475;SDS011;3779;49.216;8.650;2022-09-03T06:10:59;1.42;;;1.33;;
7475;SDS011;3779;49.216;8.650;2022-09-03T06:13:46;1.80;;;1.38;;
7475;SDS011;3779;49.216;8.650;2022-09-03T06:16:32;1.50;;;1.38;;
7475;SDS011;3779;49.216;8.650;2022-09-03T06:19:20;1.83;;;1.25;;
7475;SDS011;3779;49.216;8.650;2022-09-03T06:22:06;1.83;;;1.40;;
7475;SDS011;3779;49.216;8.650;2022-09-03T06:24:52;3.92;;;1.60;;
7475;SDS011;3779;49.216;8.650;2022-09-03T06:27:38;1.63;;;1.50;;
7475;SDS011;3779;49.216;8.650;2022-09-03T06:30:24;2.75;;;1.52;;
7475;SDS011;3779;49.216;8.650;2022-09-03T06:33:10;1.40;;;1.30;;
7475;SDS011;3779;49.216;8.650;2022-09-03T06:35:57;1.63;;;1.50;;
7475;SDS011;3779;49.216;8.650;2022-09-03T06:38:50;1.65;;;1.48;;
7475;SDS011;3779;49.216;8.650;2022-09-03T06:41:37;2.63;;;1.42;;
7475;SDS011;3779;49.216;8.650;2022-09-03T06:44:24;1.75;;;1.50;;
7475;SDS011;3779;49.216;8.650;2022-09-03T06:47:09;2.40;;;1.40;;
7475;SDS011;3779;49.216;8.650;2022-09-03T06:49:55;4.32;;;1.65;;
7475;SDS011;3779;49.216;8.650;2022-09-03T06:52:49;1.52;;;1.42;;
7475;SDS011;3779;49.216;8.650;2022-09-03T06:55:37;2.60;;;1.48;;
7475;SDS011;3779;49.216;8.650;2022-09-03T06:58:27;1.45;;;1.30;;
7475;SDS011;3779;49.216;8.650;2022-09-03T07:01:15;1.50;;;1.40;;
7475;SDS011;3779;49.216;8.650;2022-09-03T07:04:03;2.03;;;1.67;;
7475;SDS011;3779;49.216;8.650;2022-09-03T07:06:49;5.45;;;2.25;;
7475;SDS011;3779;49.216;8.650;2022-09-03T07:09:35;5.78;;;2.20;;
7475;SDS011;3779;49.216;8.650;2022-09-03T07:12:22;4.78;;;1.73;;
7475;SDS011;3779;49.216;8.650;2022-09-03T07:15:08;2.85;;;1.80;;
7475;SDS011;3779;49.216;8.650;2022-09-03T07:17:54;2.75;;;1.70;;
7475;SDS011;3779;49.216;8.650;2022-09-03T07:20:40;3.30;;;1.70;;
7475;SDS011;3779;49.216;8.650;2022-09-03T07:23:26;3.47;;;1.85;;
7475;SDS011;3779;49.216;8.650;2022-09-03T07:26:16;3.28;;;1.67;;
7475;SDS011;3779;49.216;8.650;2022-09-03T07:29:06;3.28;;;1.45;;
7475;SDS011;3779;49.216;8.650;2022-09-03T07:31:52;2.20;;;1.70;;
7475;SDS011;3779;49.216;8.650;2022-09-03T07:34:38;1.52;;;1.42;;
7475;SDS011;3779;49.216;8.650;2022-09-03T07:37:24;2.20;;;1.40;;
7475;SDS011;3779;49.216;8.650;2022-09-03T07:40:10;1.55;;;1.45;;
7475;SDS011;3779;49.216;8.650;2022-09-03T07:42:55;1.70;;;1.60;;
7475;SDS011;3779;49.216;8.650;2022-09-03T07:45:49;2.00;;;1.70;;
7475;SDS011;3779;49.216;8.650;2022-09-03T07:48:35;3.65;;;1.50;;
7475;SDS011;3779;49.216;8.650;2022-09-03T07:51:22;2.30;;;1.90;;
7475;SDS011;3779;49.216;8.650;2022-09-03T07:54:13;3.33;;;1.73;;
7475;SDS011;3779;49.216;8.650;2022-09-03T07:56:59;4.80;;;2.28;;
7475;SDS011;3779;49.216;8.650;2022-09-03T07:59:45;2.22;;;1.83;;
7475;SDS011;3779;49.216;8.650;2022-09-03T08:02:32;3.20;;;1.83;;
7475;SDS011;3779;49.216;8.650;2022-09-03T08:05:18;3.97;;;1.80;;
7475;SDS011;3779;49.216;8.650;2022-09-03T08:08:07;2.42;;;1.92;;
7475;SDS011;3779;49.216;8.650;2022-09-03T08:10:52;5.50;;;2.70;;
7475;SDS011;3779;49.216;8.650;2022-09-03T08:13:41;2.33;;;2.13;;
7475;SDS011;3779;49.216;8.650;2022-09-03T08:16:30;2.95;;;2.22;;
7475;SDS011;3779;49.216;8.650;2022-09-03T08:19:20;3.10;;;2.20;;
7475;SDS011;3779;49.216;8.650;2022-09-03T08:22:07;2.17;;;1.95;;
7475;SDS011;3779;49.216;8.650;2022-09-03T08:24:54;3.53;;;2.22;;
7475;SDS011;3779;49.216;8.650;2022-09-03T08:27:40;2.83;;;2.00;;
7475;SDS011;3779;49.216;8.650;2022-09-03T08:30:26;2.88;;;2.00;;
7475;SDS011;3779;49.216;8.650;2022-09-03T08:33:12;3.58;;;1.77;;
7475;SDS011;3779;49.216;8.650;2022-09-03T08:35:58;4.13;;;1.80;;
7475;SDS011;3779;49.216;8.650;2022-09-03T08:38:45;4.00;;;2.50;;
7475;SDS011;3779;49.216;8.650;2022-09-03T08:56:32;4.68;;;1.95;;
7475;SDS011;3779;49.216;8.650;2022-09-03T08:59:23;4.60;;;2.10;;
7475;SDS011;3779;49.216;8.650;2022-09-03T09:02:14;3.17;;;1.98;;
7475;SDS011;3779;49.216;8.650;2022-09-03T09:08:36;3.95;;;2.38;;
7475;SDS011;3779;49.216;8.650;2022-09-03T09:18:08;4.13;;;2.20;;
7475;SDS011;3779;49.216;8.650;2022-09-03T09:21:02;3.33;;;2.42;;
7475;SDS011;3779;49.216;8.650;2022-09-03T09:24:00;2.78;;;2.00;;
7475;SDS011;3779;49.216;8.650;2022-09-03T09:26:50;3.33;;;2.40;;
7475;SDS011;3779;49.216;8.650;2022-09-03T09:29:45;2.60;;;2.20;;
7475;SDS011;3779;49.216;8.650;2022-09-03T09:32:33;3.45;;;2.10;;
7475;SDS011;3779;49.216;8.650;2022-09-03T09:35:23;3.05;;;2.10;;
7475;SDS011;3779;49.216;8.650;2022-09-03T09:38:09;5.43;;;2.13;;
7475;SDS011;3779;49.216;8.650;2022-09-03T09:41:06;6.05;;;2.22;;
7475;SDS011;3779;49.216;8.650;2022-09-03T09:44:00;2.90;;;2.25;;
7475;SDS011;3779;49.216;8.650;2022-09-03T09:46:47;3.17;;;2.10;;
7475;SDS011;3779;49.216;8.650;2022-09-03T09:49:34;2.95;;;2.25;;
7475;SDS011;3779;49.216;8.650;2022-09-03T09:52:28;3.70;;;2.25;;
7475;SDS011;3779;49.216;8.650;2022-09-03T09:55:16;3.40;;;2.40;;
7475;SDS011;3779;49.216;8.650;2022-09-03T09:58:04;2.53;;;2.30;;
7475;SDS011;3779;49.216;8.650;2022-09-03T10:00:54;2.63;;;2.30;;
7475;SDS011;3779;49.216;8.650;2022-09-03T10:03:50;3.67;;;2.10;;
7475;SDS011;3779;49.216;8.650;2022-09-03T10:06:40;2.88;;;2.10;;
7475;SDS011;3779;49.216;8.650;2022-09-03T10:09:41;3.80;;;2.00;;
7475;SDS011;3779;49.216;8.650;2022-09-03T10:12:44;2.85;;;2.28;;
7475;SDS011;3779;49.216;8.650;2022-09-03T10:15:41;4.32;;;2.63;;
7475;SDS011;3779;49.216;8.650;2022-09-03T10:19:04;2.60;;;2.20;;
7475;SDS011;3779;49.216;8.650;2022-09-03T10:22:00;3.15;;;2.25;;
7475;SDS011;3779;49.216;8.650;2022-09-03T10:24:55;3.55;;;2.60;;
7475;SDS011;3779;49.216;8.650;2022-09-03T10:27:43;3.70;;;2.47;;
7475;SDS011;3779;49.216;8.650;2022-09-03T10:30:30;3.83;;;2.65;;
7475;SDS011;3779;49.216;8.650;2022-09-03T10:33:33;4.50;;;3.00;;
7475;SDS011;3779;49.216;8.650;2022-09-03T10:42:55;3.70;;;2.35;;
7475;SDS011;3779;49.216;8.650;2022-09-03T10:46:05;3.17;;;2.58;;
7475;SDS011;3779;49.216;8.650;2022-09-03T10:52:24;3.58;;;3.00;;
7475;SDS011;3779;49.216;8.650;2022-09-03T11:07:19;4.22;;;2.42;;
7475;SDS011;3779;49.216;8.650;2022-09-03T11:10:12;3.38;;;2.40;;
7475;SDS011;3779;49.216;8.650;2022-09-03T11:16:17;4.00;;;2.63;;
7475;SDS011;3779;49.216;8.650;2022-09-03T11:19:08;3.53;;;2.10;;
7475;SDS011;3779;49.216;8.650;2022-09-03T11:22:01;3.13;;;2.70;;
7475;SDS011;3779;49.216;8.650;2022-09-03T11:24:53;3.63;;;2.60;;
7475;SDS011;3779;49.216;8.650;2022-09-03T11:27:51;3.85;;;2.45;;
7475;SDS011;3779;49.216;8.650;2022-09-03T11:31:04;3.47;;;2.20;;
7475;SDS011;3779;49.216;8.650;2022-09-03T11:34:07;2.50;;;2.28;;
7475;SDS011;3779;49.216;8.650;2022-09-03T11:40:10;2.60;;;2.28;;
7475;SDS011;3779;49.216;8.650;2022-09-03T11:43:24;4.53;;;2.40;;
7475;SDS011;3779;49.216;8.650;2022-09-03T11:49:12;3.80;;;2.20;;
7475;SDS011;3779;49.216;8.650;2022-09-03T11:52:09;3.88;;;2.40;;
7475;SDS011;3779;49.216;8.650;2022-09-03T11:54:56;2.53;;;1.98;;
7475;SDS011;3779;49.216;8.650;2022-09-03T11:57:42;2.40;;;2.20;;
7475;SDS011;3779;49.216;8.650;2022-09-03T12:00:28;2.95;;;2.20;;
7475;SDS011;3779;49.216;8.650;2022-09-03T12:03:15;2.30;;;2.10;;
7475;SDS011;3779;49.216;8.650;2022-09-03T12:18:44;3.33;;;2.35;;
7475;SDS011;3779;49.216;8.650;2022-09-03T12:21:37;3.25;;;2.13;;
7475;SDS011;3779;49.216;8.650;2022-09-03T12:24:25;2.58;;;2.30;;
7475;SDS011;3779;49.216;8.650;2022-09-03T12:27:34;2.50;;;2.30;;
7475;SDS011;3779;49.216;8.650;2022-09-03T12:30:21;3.53;;;2.50;;
7475;SDS011;3779;49.216;8.650;2022-09-03T12:33:04;2.53;;;2.30;;
7475;SDS011;3779;49.216;8.650;2022-09-03T12:36:00;3.10;;;2.33;;
7475;SDS011;3779;49.216;8.650;2022-09-03T12:38:46;2.88;;;2.67;;
7475;SDS011;3779;49.216;8.650;2022-09-03T12:41:32;3.10;;;2.33;;
7475;SDS011;3779;49.216;8.650;2022-09-03T12:44:24;2.60;;;2.40;;
7475;SDS011;3779;49.216;8.650;2022-09-03T12:47:36;3.30;;;2.65;;
7475;SDS011;3779;49.216;8.650;2022-09-03T12:50:24;3.97;;;2.90;;
7475;SDS011;3779;49.216;8.650;2022-09-03T12:53:11;3.05;;;2.60;;
7475;SDS011;3779;49.216;8.650;2022-09-03T12:56:02;3.65;;;2.78;;
7475;SDS011;3779;49.216;8.650;2022-09-03T12:58:53;2.75;;;2.55;;
7475;SDS011;3779;49.216;8.650;2022-09-03T13:01:44;3.67;;;3.15;;
7475;SDS011;3779;49.216;8.650;2022-09-03T13:04:34;3.47;;;3.05;;
7475;SDS011;3779;49.216;8.650;2022-09-03T13:10:15;4.07;;;3.10;;
7475;SDS011;3779;49.216;8.650;2022-09-03T13:13:31;3.13;;;2.92;;
7475;SDS011;3779;49.216;8.650;2022-09-03T13:16:28;2.85;;;2.65;;
7475;SDS011;3779;49.216;8.650;2022-09-03T13:28:54;3.45;;;3.13;;
7475;SDS011;3779;49.216;8.650;2022-09-03T13:31:48;2.95;;;2.70;;
7475;SDS011;3779;49.216;8.650;2022-09-03T13:34:39;3.80;;;2.70;;
7475;SDS011;3779;49.216;8.650;2022-09-03T13:37:42;2.47;;;2.20;;
7475;SDS011;3779;49.216;8.650;2022-09-03T13:40:34;2.72;;;2.53;;
7475;SDS011;3779;49.216;8.650;2022-09-03T13:43:38;2.80;;;2.53;;
7475;SDS011;3779;49.216;8.650;2022-09-03T13:46:32;4.97;;;2.97;;
7475;SDS011;3779;49.216;8.650;2022-09-03T13:49:35;3.08;;;2.70;;
7475;SDS011;3779;49.216;8.650;2022-09-03T13:53:03;3.00;;;2.78;;
7475;SDS011;3779;49.216;8.650;2022-09-03T13:56:22;3.15;;;2.88;;
7475;SDS011;3779;49.216;8.650;2022-09-03T14:02:43;3.78;;;2.42;;
7475;SDS011;3779;49.216;8.650;2022-09-03T14:12:38;2.67;;;2.47;;
7475;SDS011;3779;49.216;8.650;2022-09-03T14:15:46;2.75;;;2.55;;
7475;SDS011;3779;49.216;8.650;2022-09-03T14:18:50;3.72;;;2.70;;
7475;SDS011;3779;49.216;8.650;2022-09-03T14:21:46;4.63;;;2.80;;
7475;SDS011;3779;49.216;8.650;2022-09-03T14:24:47;6.07;;;3.10;;
7475;SDS011;3779;49.216;8.650;2022-09-03T14:27:42;4.15;;;2.50;;
7475;SDS011;3779;49.216;8.650;2022-09-03T14:30:39;3.78;;;2.47;;
7475;SDS011;3779;49.216;8.650;2022-09-03T14:36:49;2.75;;;2.50;;
7475;SDS011;3779;49.216;8.650;2022-09-03T14:39:53;3.20;;;2.90;;
7475;SDS011;3779;49.216;8.650;2022-09-03T14:45:56;2.90;;;2.70;;
7475;SDS011;3779;49.216;8.650;2022-09-03T14:57:56;2.80;;;2.60;;
7475;SDS011;3779;49.216;8.650;2022-09-03T15:01:01;4.47;;;2.75;;
7475;SDS011;3779;49.216;8.650;2022-09-03T15:13:15;3.60;;;3.25;;
7475;SDS011;3779;49.216;8.650;2022-09-03T15:16:29;3.65;;;3.35;;
7475;SDS011;3779;49.216;8.650;2022-09-03T15:25:15;3.25;;;2.85;;
7475;SDS011;3779;49.216;8.650;2022-09-03T15:37:28;3.35;;;3.13;;
7475;SDS011;3779;49.216;8.650;2022-09-03T15:40:37;4.43;;;3.60;;
7475;SDS011;3779;49.216;8.650;2022-09-03T15:43:31;4.18;;;3.78;;
7475;SDS011;3779;49.216;8.650;2022-09-03T15:46:37;3.75;;;3.38;;
7475;SDS011;3779;49.216;8.650;2022-09-03T15:52:36;4.07;;;3.78;;
7475;SDS011;3779;49.216;8.650;2022-09-03T15:55:38;5.78;;;4.00;;
7475;SDS011;3779;49.216;8.650;2022-09-03T15:58:33;4.35;;;3.95;;
7475;SDS011;3779;49.216;8.650;2022-09-03T16:07:08;3.65;;;3.35;;
7475;SDS011;3779;49.216;8.650;2022-09-03T16:15:59;3.63;;;3.35;;
7475;SDS011;3779;49.216;8.650;2022-09-03T16:19:21;4.60;;;3.47;;
7475;SDS011;3779;49.216;8.650;2022-09-03T16:22:15;3.30;;;3.00;;
7475;SDS011;3779;49.216;8.650;2022-09-03T16:25:15;3.80;;;3.50;;
7475;SDS011;3779;49.216;8.650;2022-09-03T16:28:18;3.42;;;3.15;;
7475;SDS011;3779;49.216;8.650;2022-09-03T16:37:38;3.88;;;3.50;;
7475;SDS011;3779;49.216;8.650;2022-09-03T16:43:39;3.30;;;3.10;;
7475;SDS011;3779;49.216;8.650;2022-09-03T16:46:49;2.92;;;2.70;;
7475;SDS011;3779;49.216;8.650;2022-09-03T16:49:52;2.90;;;2.70;;
7475;SDS011;3779;49.216;8.650;2022-09-03T16:52:53;3.33;;;2.78;;
7475;SDS011;3779;49.216;8.650;2022-09-03T17:17:21;3.28;;;2.65;;
7475;SDS011;3779;49.216;8.650;2022-09-03T17:20:02;2.65;;;2.45;;
7475;SDS011;3779;49.216;8.650;2022-09-03T17:29:24;2.65;;;2.45;;
7475;SDS011;3779;49.216;8.650;2022-09-03T17:32:22;2.85;;;2.60;;
7475;SDS011;3779;49.216;8.650;2022-09-03T17:35:16;2.67;;;2.47;;
7475;SDS011;3779;49.216;8.650;2022-09-03T17:44:39;3.10;;;2.60;;
7475;SDS011;3779;49.216;8.650;2022-09-03T17:51:04;2.33;;;2.20;;
7475;SDS011;3779;49.216;8.650;2022-09-03T18:00:22;2.45;;;2.25;;
7475;SDS011;3779;49.216;8.650;2022-09-03T18:03:12;2.45;;;2.08;;
7475;SDS011;3779;49.216;8.650;2022-09-03T18:12:08;2.90;;;2.30;;
7475;SDS011;3779;49.216;8.650;2022-09-03T18:15:03;2.55;;;2.35;;
7475;SDS011;3779;49.216;8.650;2022-09-03T18:17:56;3.65;;;1.98;;
7475;SDS011;3779;49.216;8.650;2022-09-03T18:20:50;3.38;;;1.98;;
7475;SDS011;3779;49.216;8.650;2022-09-03T18:24:18;3.83;;;2.05;;
7475;SDS011;3779;49.216;8.650;2022-09-03T18:30:39;2.38;;;1.85;;
7475;SDS011;3779;49.216;8.650;2022-09-03T18:33:46;4.43;;;1.77;;
7475;SDS011;3779;49.216;8.650;2022-09-03T18:36:50;2.10;;;1.90;;
7475;SDS011;3779;49.216;8.650;2022-09-03T18:39:59;2.70;;;2.03;;
7475;SDS011;3779;49.216;8.650;2022-09-03T18:46:25;4.18;;;2.63;;
7475;SDS011;3779;49.216;8.650;2022-09-03T18:53:01;3.72;;;2.90;;
7475;SDS011;3779;49.216;8.650;2022-09-03T19:06:11;3.72;;;2.42;;
7475;SDS011;3779;49.216;8.650;2022-09-03T19:09:32;2.58;;;2.15;;
7475;SDS011;3779;49.216;8.650;2022-09-03T19:15:48;3.70;;;2.42;;
7475;SDS011;3779;49.216;8.650;2022-09-03T19:22:08;3.70;;;2.30;;
7475;SDS011;3779;49.216;8.650;2022-09-03T19:25:14;2.40;;;2.20;;
7475;SDS011;3779;49.216;8.650;2022-09-03T19:28:23;3.75;;;2.88;;
7475;SDS011;3779;49.216;8.650;2022-09-03T19:35:16;2.72;;;2.53;;
7475;SDS011;3779;49.216;8.650;2022-09-03T19:41:38;6.22;;;4.63;;
7475;SDS011;3779;49.216;8.650;2022-09-03T19:45:10;4.95;;;4.32;;
7475;SDS011;3779;49.216;8.650;2022-09-03T19:48:27;4.55;;;3.70;;
7475;SDS011;3779;49.216;8.650;2022-09-03T19:55:05;5.18;;;3.50;;
7475;SDS011;3779;49.216;8.650;2022-09-03T19:58:15;3.80;;;2.85;;
7475;SDS011;3779;49.216;8.650;2022-09-03T20:01:22;4.28;;;2.90;;
7475;SDS011;3779;49.216;8.650;2022-09-03T20:04:35;4.30;;;3.15;;
7475;SDS011;3779;49.216;8.650;2022-09-03T20:07:44;3.53;;;2.78;;
7475;SDS011;3779;49.216;8.650;2022-09-03T20:10:52;3.47;;;3.15;;
7475;SDS011;3779;49.216;8.650;2022-09-03T20:13:41;3.58;;;2.50;;
7475;SDS011;3779;49.216;8.650;2022-09-03T20:23:09;5.53;;;2.42;;
7475;SDS011;3779;49.216;8.650;2022-09-03T20:32:10;5.38;;;2.60;;
7475;SDS011;3779;49.216;8.650;2022-09-03T20:41:22;3.20;;;2.50;;
7475;SDS011;3779;49.216;8.650;2022-09-03T20:44:32;3.08;;;2.28;;
7475;SDS011;3779;49.216;8.650;2022-09-03T20:50:30;5.22;;;2.60;;
7475;SDS011;3779;49.216;8.650;2022-09-03T21:00:10;3.13;;;2.20;;
7475;SDS011;3779;49.216;8.650;2022-09-03T21:09:19;2.17;;;1.98;;
7475;SDS011;3779;49.216;8.650;2022-09-03T21:15:18;2.33;;;2.13;;
7475;SDS011;3779;49.216;8.650;2022-09-03T21:18:19;2.88;;;2.05;;
7475;SDS011;3779;49.216;8.650;2022-09-03T21:24:26;2.17;;;1.98;;
7475;SDS011;3779;49.216;8.650;2022-09-03T21:27:20;2.63;;;2.35;;
7475;SDS011;3779;49.216;8.650;2022-09-03T21:30:11;2.40;;;2.20;;
7475;SDS011;3779;49.216;8.650;2022-09-03T21:33:07;4.38;;;2.50;;
7475;SDS011;3779;49.216;8.650;2022-09-03T21:36:11;5.25;;;2.40;;
7475;SDS011;3779;49.216;8.650;2022-09-03T21:39:19;3.63;;;2.20;;
7475;SDS011;3779;49.216;8.650;2022-09-03T21:42:30;4.03;;;2.28;;
7475;SDS011;3779;49.216;8.650;2022-09-03T21:45:41;4.43;;;2.17;;
7475;SDS011;3779;49.216;8.650;2022-09-03T21:48:37;3.90;;;2.25;;
7475;SDS011;3779;49.216;8.650;2022-09-03T21:51:32;5.07;;;2.05;;
7475;SDS011;3779;49.216;8.650;2022-09-03T21:54:29;2.50;;;2.30;;
7475;SDS011;3779;49.216;8.650;2022-09-03T21:57:31;3.75;;;2.40;;
7475;SDS011;3779;49.216;8.650;2022-09-03T22:00:26;3.50;;;2.10;;
7475;SDS011;3779;49.216;8.650;2022-09-03T22:03:17;3.35;;;2.10;;
7475;SDS011;3779;49.216;8.650;2022-09-03T22:06:05;2.67;;;2.10;;
7475;SDS011;3779;49.216;8.650;2022-09-03T22:09:03;2.47;;;2.28;;
7475;SDS011;3779;49.216;8.650;2022-09-03T22:12:02;2.13;;;1.90;;
7475;SDS011;3779;49.216;8.650;2022-09-03T22:15:01;2.83;;;1.95;;
7475;SDS011;3779;49.216;8.650;2022-09-03T22:20:53;5.45;;;2.30;;
7475;SDS011;3779;49.216;8.650;2022-09-03T22:26:42;4.07;;;2.00;;
7475;SDS011;3779;49.216;8.650;2022-09-03T22:32:59;3.55;;;2.10;;
7475;SDS011;3779;49.216;8.650;2022-09-03T22:51:14;4.65;;;2.03;;
7475;SDS011;3779;49.216;8.650;2022-09-03T22:57:13;2.75;;;2.05;;
7475;SDS011;3779;49.216;8.650;2022-09-03T23:00:03;4.88;;;2.13;;
7475;SDS011;3779;49.216;8.650;2022-09-03T23:02:58;6.28;;;2.13;;
7475;SDS011;3779;49.216;8.650;2022-09-03T23:05:49;7.32;;;2.40;;
7475;SDS011;3779;49.216;8.650;2022-09-03T23:08:53;3.70;;;2.20;;
7475;SDS011;3779;49.216;8.650;2022-09-03T23:11:46;3.65;;;2.42;;
7475;SDS011;3779;49.216;8.650;2022-09-03T23:14:38;3.80;;;2.67;;
7475;SDS011;3779;49.216;8.650;2022-09-03T23:17:33;3.95;;;2.33;;
7475;SDS011;3779;49.216;8.650;2022-09-03T23:20:25;5.68;;;2.72;;
7475;SDS011;3779;49.216;8.650;2022-09-03T23:23:21;3.60;;;2.72;;
7475;SDS011;3779;49.216;8.650;2022-09-03T23:29:18;4.03;;;2.22;;
7475;SDS011;3779;49.216;8.650;2022-09-03T23:32:10;3.80;;;2.50;;
7475;SDS011;3779;49.216;8.650;2022-09-03T23:34:56;3.60;;;2.30;;
7475;SDS011;3779;49.216;8.650;2022-09-03T23:38:06;5.50;;;2.10;;
7475;SDS011;3779;49.216;8.650;2022-09-03T23:41:26;2.90;;;1.90;;
7475;SDS011;3779;49.216;8.650;2022-09-03T23:57:27;5.68;;;2.38;;
